sensor_id;sensor_type;location;lat;lon;timestamp;temperature;humidity
3614;DHT22;1821;50.936;6.854;2022-09-29T00:00:19;10.70;99.90
3614;DHT22;1821;50.936;6.854;2022-09-29T00:01:01;10.10;99.90
3614;DHT22;1821;50.936;6.854;2022-09-29T00:01:43;10.20;99.90
3614;DHT22;1821;50.936;6.854;2022-09-29T00:02:24;10.10;99.90
3614;DHT22;1821;50.936;6.854;2022-09-29T00:03:06;10.10;99.90
3614;DHT22;1821;50.936;6.854;2022-09-29T00:03:48;9.70;99.90
3614;DHT22;1821;50.936;6.854;2022-09-29T00:04:30;10.40;99.90
3614;DHT22;1821;50.936;6.854;2022-09-29T00:05:11;10.00;99.90
3614;DHT22;1821;50.936;6.854;2022-09-29T00:05:54;10.70;99.90
3614;DHT22;1821;50.936;6.854;2022-09-29T00:06:36;10.20;99.90
3614;DHT22;1821;50.936;6.854;2022-09-29T00:07:18;10.10;99.90
3614;DHT22;1821;50.936;6.854;2022-09-29T00:08:00;10.30;99.90
3614;DHT22;1821;50.936;6.854;2022-09-29T00:08:42;10.00;99.90
3614;DHT22;1821;50.936;6.854;2022-09-29T00:09:24;9.80;99.90
3614;DHT22;1821;50.936;6.854;2022-09-29T00:10:06;10.00;99.90
3614;DHT22;1821;50.936;6.854;2022-09-29T00:10:48;10.00;99.90
3614;DHT22;1821;50.936;6.854;2022-09-29T00:11:30;9.50;99.90
3614;DHT22;1821;50.936;6.854;2022-09-29T00:12:12;9.90;99.90
3614;DHT22;1821;50.936;6.854;2022-09-29T00:12:53;9.50;99.90
3614;DHT22;1821;50.936;6.854;2022-09-29T00:13:35;10.20;99.90
3614;DHT22;1821;50.936;6.854;2022-09-29T00:14:17;9.80;99.90
3614;DHT22;1821;50.936;6.854;2022-09-29T00:14:58;9.80;99.90
3614;DHT22;1821;50.936;6.854;2022-09-29T00:15:41;11.20;99.90
3614;DHT22;1821;50.936;6.854;2022-09-29T00:16:23;9.30;99.90
3614;DHT22;1821;50.936;6.854;2022-09-29T00:17:04;9.40;99.90
3614;DHT22;1821;50.936;6.854;2022-09-29T00:17:46;9.50;99.90
3614;DHT22;1821;50.936;6.854;2022-09-29T00:18:48;9.60;99.90
3614;DHT22;1821;50.936;6.854;2022-09-29T00:19:29;10.80;99.90
3614;DHT22;1821;50.936;6.854;2022-09-29T00:20:13;9.90;99.90
3614;DHT22;1821;50.936;6.854;2022-09-29T00:21:07;9.80;99.90
3614;DHT22;1821;50.936;6.854;2022-09-29T00:21:49;9.50;99.90
3614;DHT22;1821;50.936;6.854;2022-09-29T00:22:31;9.80;99.90
3614;DHT22;1821;50.936;6.854;2022-09-29T00:23:13;9.80;99.90
3614;DHT22;1821;50.936;6.854;2022-09-29T00:23:55;10.00;99.90
3614;DHT22;1821;50.936;6.854;2022-09-29T00:24:36;9.80;99.90
3614;DHT22;1821;50.936;6.854;2022-09-29T00:25:18;10.30;99.90
3614;DHT22;1821;50.936;6.854;2022-09-29T00:26:09;9.50;99.90
3614;DHT22;1821;50.936;6.854;2022-09-29T00:26:51;10.00;99.90
3614;DHT22;1821;50.936;6.854;2022-09-29T00:27:33;9.80;99.90
3614;DHT22;1821;50.936;6.854;2022-09-29T00:28:14;9.50;99.90
3614;DHT22;1821;50.936;6.854;2022-09-29T00:28:57;9.60;99.90
3614;DHT22;1821;50.936;6.854;2022-09-29T00:29:39;10.40;99.90
3614;DHT22;1821;50.936;6.854;2022-09-29T00:30:20;9.80;99.90
3614;DHT22;1821;50.936;6.854;2022-09-29T00:31:04;10.40;99.90
3614;DHT22;1821;50.936;6.854;2022-09-29T00:31:46;9.80;99.90
3614;DHT22;1821;50.936;6.854;2022-09-29T00:32:27;9.70;99.90
3614;DHT22;1821;50.936;6.854;2022-09-29T00:33:09;9.80;99.90
3614;DHT22;1821;50.936;6.854;2022-09-29T00:33:51;9.80;99.90
3614;DHT22;1821;50.936;6.854;2022-09-29T00:34:33;9.70;99.90
3614;DHT22;1821;50.936;6.854;2022-09-29T00:35:14;9.70;99.90
3614;DHT22;1821;50.936;6.854;2022-09-29T00:36:00;9.70;99.90
3614;DHT22;1821;50.936;6.854;2022-09-29T00:36:42;9.70;99.90
3614;DHT22;1821;50.936;6.854;2022-09-29T00:37:23;9.60;99.90
3614;DHT22;1821;50.936;6.854;2022-09-29T00:38:05;9.70;99.90
3614;DHT22;1821;50.936;6.854;2022-09-29T00:38:47;9.70;99.90
3614;DHT22;1821;50.936;6.854;2022-09-29T00:39:32;9.70;99.90
3614;DHT22;1821;50.936;6.854;2022-09-29T00:40:14;9.50;99.90
3614;DHT22;1821;50.936;6.854;2022-09-29T00:40:56;9.70;99.90
3614;DHT22;1821;50.936;6.854;2022-09-29T00:41:39;9.60;99.90
3614;DHT22;1821;50.936;6.854;2022-09-29T00:42:21;9.70;99.90
3614;DHT22;1821;50.936;6.854;2022-09-29T00:43:03;9.70;99.90
3614;DHT22;1821;50.936;6.854;2022-09-29T00:43:57;9.60;99.90
3614;DHT22;1821;50.936;6.854;2022-09-29T00:45:23;9.60;99.90
3614;DHT22;1821;50.936;6.854;2022-09-29T00:46:05;9.60;99.90
3614;DHT22;1821;50.936;6.854;2022-09-29T00:46:56;9.60;99.90
3614;DHT22;1821;50.936;6.854;2022-09-29T00:47:40;9.40;99.90
3614;DHT22;1821;50.936;6.854;2022-09-29T00:48:29;9.60;99.90
3614;DHT22;1821;50.936;6.854;2022-09-29T00:49:23;9.50;99.90
3614;DHT22;1821;50.936;6.854;2022-09-29T00:50:13;9.50;99.90
3614;DHT22;1821;50.936;6.854;2022-09-29T00:50:58;9.70;99.90
3614;DHT22;1821;50.936;6.854;2022-09-29T00:51:45;9.50;99.90
3614;DHT22;1821;50.936;6.854;2022-09-29T00:52:36;9.60;99.90
3614;DHT22;1821;50.936;6.854;2022-09-29T00:53:21;8.90;99.90
3614;DHT22;1821;50.936;6.854;2022-09-29T00:54:04;10.00;99.90
3614;DHT22;1821;50.936;6.854;2022-09-29T00:55:27;9.50;99.90
3614;DHT22;1821;50.936;6.854;2022-09-29T00:56:13;9.40;99.90
3614;DHT22;1821;50.936;6.854;2022-09-29T00:56:56;10.10;99.90
3614;DHT22;1821;50.936;6.854;2022-09-29T00:57:44;8.90;99.90
3614;DHT22;1821;50.936;6.854;2022-09-29T00:58:36;9.90;99.90
3614;DHT22;1821;50.936;6.854;2022-09-29T00:59:26;9.30;99.90
3614;DHT22;1821;50.936;6.854;2022-09-29T01:00:13;10.00;99.90
3614;DHT22;1821;50.936;6.854;2022-09-29T01:00:55;9.40;99.90
3614;DHT22;1821;50.936;6.854;2022-09-29T01:01:37;9.80;99.90
3614;DHT22;1821;50.936;6.854;2022-09-29T01:02:19;10.30;99.90
3614;DHT22;1821;50.936;6.854;2022-09-29T01:03:13;9.40;99.90
3614;DHT22;1821;50.936;6.854;2022-09-29T01:04:01;9.10;99.90
3614;DHT22;1821;50.936;6.854;2022-09-29T01:04:45;8.90;99.90
3614;DHT22;1821;50.936;6.854;2022-09-29T01:05:32;9.30;99.90
3614;DHT22;1821;50.936;6.854;2022-09-29T01:06:22;9.30;99.90
3614;DHT22;1821;50.936;6.854;2022-09-29T01:07:05;10.00;99.90
3614;DHT22;1821;50.936;6.854;2022-09-29T01:07:50;9.30;99.90
3614;DHT22;1821;50.936;6.854;2022-09-29T01:08:38;9.20;99.90
3614;DHT22;1821;50.936;6.854;2022-09-29T01:09:31;9.20;99.90
3614;DHT22;1821;50.936;6.854;2022-09-29T01:10:15;9.20;99.90
3614;DHT22;1821;50.936;6.854;2022-09-29T01:10:59;9.20;99.90
3614;DHT22;1821;50.936;6.854;2022-09-29T01:11:41;8.90;99.90
3614;DHT22;1821;50.936;6.854;2022-09-29T01:12:23;9.30;99.90
3614;DHT22;1821;50.936;6.854;2022-09-29T01:13:04;9.30;99.90
3614;DHT22;1821;50.936;6.854;2022-09-29T01:13:47;9.80;99.90
3614;DHT22;1821;50.936;6.854;2022-09-29T01:14:30;9.90;99.90
3614;DHT22;1821;50.936;6.854;2022-09-29T01:15:16;9.70;99.90
3614;DHT22;1821;50.936;6.854;2022-09-29T01:15:58;9.20;99.90
3614;DHT22;1821;50.936;6.854;2022-09-29T01:16:40;9.20;99.90
3614;DHT22;1821;50.936;6.854;2022-09-29T01:17:22;9.20;99.90
3614;DHT22;1821;50.936;6.854;2022-09-29T01:18:04;9.60;99.90
3614;DHT22;1821;50.936;6.854;2022-09-29T01:18:47;9.30;99.90
3614;DHT22;1821;50.936;6.854;2022-09-29T01:20:22;9.20;99.90
3614;DHT22;1821;50.936;6.854;2022-09-29T01:21:21;9.20;99.90
3614;DHT22;1821;50.936;6.854;2022-09-29T01:23:57;10.20;99.90
3614;DHT22;1821;50.936;6.854;2022-09-29T01:27:10;9.10;99.90
3614;DHT22;1821;50.936;6.854;2022-09-29T01:30:07;9.10;99.90
3614;DHT22;1821;50.936;6.854;2022-09-29T01:33:26;9.10;99.90
3614;DHT22;1821;50.936;6.854;2022-09-29T01:34:22;9.10;99.90
3614;DHT22;1821;50.936;6.854;2022-09-29T01:37:13;9.00;99.90
3614;DHT22;1821;50.936;6.854;2022-09-29T01:39:16;9.00;99.90
3614;DHT22;1821;50.936;6.854;2022-09-29T01:40:10;9.10;99.90
3614;DHT22;1821;50.936;6.854;2022-09-29T01:41:12;9.20;99.90
3614;DHT22;1821;50.936;6.854;2022-09-29T01:42:18;8.90;99.90
3614;DHT22;1821;50.936;6.854;2022-09-29T01:43:19;9.10;99.90
3614;DHT22;1821;50.936;6.854;2022-09-29T01:44:59;9.00;99.90
3614;DHT22;1821;50.936;6.854;2022-09-29T01:45:52;8.50;99.90
3614;DHT22;1821;50.936;6.854;2022-09-29T01:46:44;10.00;99.90
3614;DHT22;1821;50.936;6.854;2022-09-29T01:47:34;9.20;99.90
3614;DHT22;1821;50.936;6.854;2022-09-29T01:48:21;9.60;99.90
3614;DHT22;1821;50.936;6.854;2022-09-29T01:49:05;9.00;99.90
3614;DHT22;1821;50.936;6.854;2022-09-29T01:49:56;8.90;99.90
3614;DHT22;1821;50.936;6.854;2022-09-29T01:50:42;9.30;99.90
3614;DHT22;1821;50.936;6.854;2022-09-29T01:52:06;8.80;99.90
3614;DHT22;1821;50.936;6.854;2022-09-29T01:52:47;8.80;99.90
3614;DHT22;1821;50.936;6.854;2022-09-29T01:53:36;8.90;99.90
3614;DHT22;1821;50.936;6.854;2022-09-29T01:54:24;9.40;99.90
3614;DHT22;1821;50.936;6.854;2022-09-29T01:55:17;8.90;99.90
3614;DHT22;1821;50.936;6.854;2022-09-29T01:56:04;8.90;99.90
3614;DHT22;1821;50.936;6.854;2022-09-29T01:56:58;8.60;99.90
3614;DHT22;1821;50.936;6.854;2022-09-29T01:58:21;8.80;99.90
3614;DHT22;1821;50.936;6.854;2022-09-29T01:58:57;8.90;99.90
3614;DHT22;1821;50.936;6.854;2022-09-29T01:59:45;8.70;99.90
3614;DHT22;1821;50.936;6.854;2022-09-29T02:00:30;8.90;99.90
3614;DHT22;1821;50.936;6.854;2022-09-29T02:01:17;8.50;99.90
3614;DHT22;1821;50.936;6.854;2022-09-29T02:02:06;8.80;99.90
3614;DHT22;1821;50.936;6.854;2022-09-29T02:02:52;8.70;99.90
3614;DHT22;1821;50.936;6.854;2022-09-29T02:03:47;8.70;99.90
3614;DHT22;1821;50.936;6.854;2022-09-29T02:04:40;9.20;99.90
3614;DHT22;1821;50.936;6.854;2022-09-29T02:06:20;8.80;99.90
3614;DHT22;1821;50.936;6.854;2022-09-29T02:07:15;8.80;99.90
3614;DHT22;1821;50.936;6.854;2022-09-29T02:08:09;8.70;99.90
3614;DHT22;1821;50.936;6.854;2022-09-29T02:08:54;10.00;99.90
3614;DHT22;1821;50.936;6.854;2022-09-29T02:09:44;8.90;99.90
3614;DHT22;1821;50.936;6.854;2022-09-29T02:10:32;9.10;99.90
3614;DHT22;1821;50.936;6.854;2022-09-29T02:11:16;8.70;99.90
3614;DHT22;1821;50.936;6.854;2022-09-29T02:12:00;8.70;99.90
3614;DHT22;1821;50.936;6.854;2022-09-29T02:12:44;8.70;99.90
3614;DHT22;1821;50.936;6.854;2022-09-29T02:13:40;8.20;99.90
3614;DHT22;1821;50.936;6.854;2022-09-29T02:14:26;8.70;99.90
3614;DHT22;1821;50.936;6.854;2022-09-29T02:15:13;8.50;99.90
3614;DHT22;1821;50.936;6.854;2022-09-29T02:15:56;8.70;99.90
3614;DHT22;1821;50.936;6.854;2022-09-29T02:16:53;8.30;99.90
3614;DHT22;1821;50.936;6.854;2022-09-29T02:17:39;8.60;99.90
3614;DHT22;1821;50.936;6.854;2022-09-29T02:18:24;8.70;99.90
3614;DHT22;1821;50.936;6.854;2022-09-29T02:19:11;8.40;99.90
3614;DHT22;1821;50.936;6.854;2022-09-29T02:19:55;8.70;99.90
3614;DHT22;1821;50.936;6.854;2022-09-29T02:20:37;8.10;99.90
3614;DHT22;1821;50.936;6.854;2022-09-29T02:21:20;9.80;99.90
3614;DHT22;1821;50.936;6.854;2022-09-29T02:22:02;8.50;99.90
3614;DHT22;1821;50.936;6.854;2022-09-29T02:22:44;8.50;99.90
3614;DHT22;1821;50.936;6.854;2022-09-29T02:23:26;8.50;99.90
3614;DHT22;1821;50.936;6.854;2022-09-29T02:24:07;9.20;99.90
3614;DHT22;1821;50.936;6.854;2022-09-29T02:24:52;8.60;99.90
3614;DHT22;1821;50.936;6.854;2022-09-29T02:25:37;8.20;99.90
3614;DHT22;1821;50.936;6.854;2022-09-29T02:26:20;8.90;99.90
3614;DHT22;1821;50.936;6.854;2022-09-29T02:27:02;10.00;99.90
3614;DHT22;1821;50.936;6.854;2022-09-29T02:27:46;8.60;99.90
3614;DHT22;1821;50.936;6.854;2022-09-29T02:28:28;8.50;99.90
3614;DHT22;1821;50.936;6.854;2022-09-29T02:29:10;8.50;99.90
3614;DHT22;1821;50.936;6.854;2022-09-29T02:29:52;8.30;99.90
3614;DHT22;1821;50.936;6.854;2022-09-29T02:30:35;8.80;99.90
3614;DHT22;1821;50.936;6.854;2022-09-29T02:31:17;8.50;99.90
3614;DHT22;1821;50.936;6.854;2022-09-29T02:31:59;9.00;99.90
3614;DHT22;1821;50.936;6.854;2022-09-29T02:32:44;8.50;99.90
3614;DHT22;1821;50.936;6.854;2022-09-29T02:33:26;9.80;99.90
3614;DHT22;1821;50.936;6.854;2022-09-29T02:34:10;8.50;99.90
3614;DHT22;1821;50.936;6.854;2022-09-29T02:34:54;8.30;99.90
3614;DHT22;1821;50.936;6.854;2022-09-29T02:35:49;9.00;99.90
3614;DHT22;1821;50.936;6.854;2022-09-29T02:38:53;9.10;99.90
3614;DHT22;1821;50.936;6.854;2022-09-29T02:39:53;8.80;99.90
3614;DHT22;1821;50.936;6.854;2022-09-29T02:40:56;8.40;99.90
3614;DHT22;1821;50.936;6.854;2022-09-29T02:42:00;8.40;99.90
3614;DHT22;1821;50.936;6.854;2022-09-29T02:43:08;9.30;99.90
3614;DHT22;1821;50.936;6.854;2022-09-29T02:44:15;9.30;99.90
3614;DHT22;1821;50.936;6.854;2022-09-29T02:46:13;8.50;99.90
3614;DHT22;1821;50.936;6.854;2022-09-29T02:49:38;8.40;99.90
3614;DHT22;1821;50.936;6.854;2022-09-29T02:51:26;8.50;99.90
3614;DHT22;1821;50.936;6.854;2022-09-29T02:52:38;8.30;99.90
3614;DHT22;1821;50.936;6.854;2022-09-29T02:56:09;8.40;99.90
3614;DHT22;1821;50.936;6.854;2022-09-29T02:58:09;8.30;99.90
3614;DHT22;1821;50.936;6.854;2022-09-29T03:00:18;8.40;99.90
3614;DHT22;1821;50.936;6.854;2022-09-29T03:01:00;8.40;99.90
3614;DHT22;1821;50.936;6.854;2022-09-29T03:01:51;8.50;99.90
3614;DHT22;1821;50.936;6.854;2022-09-29T03:02:33;9.20;99.90
3614;DHT22;1821;50.936;6.854;2022-09-29T03:03:15;9.40;99.90
3614;DHT22;1821;50.936;6.854;2022-09-29T03:03:57;8.50;99.90
3614;DHT22;1821;50.936;6.854;2022-09-29T03:04:44;8.20;99.90
3614;DHT22;1821;50.936;6.854;2022-09-29T03:05:26;9.00;99.90
3614;DHT22;1821;50.936;6.854;2022-09-29T03:06:10;10.50;99.90
3614;DHT22;1821;50.936;6.854;2022-09-29T03:06:53;8.50;99.90
3614;DHT22;1821;50.936;6.854;2022-09-29T03:07:38;8.70;99.90
3614;DHT22;1821;50.936;6.854;2022-09-29T03:08:20;8.10;99.90
3614;DHT22;1821;50.936;6.854;2022-09-29T03:09:02;8.10;99.90
3614;DHT22;1821;50.936;6.854;2022-09-29T03:09:43;8.50;99.90
3614;DHT22;1821;50.936;6.854;2022-09-29T03:10:25;10.20;99.90
3614;DHT22;1821;50.936;6.854;2022-09-29T03:11:10;8.40;99.90
3614;DHT22;1821;50.936;6.854;2022-09-29T03:11:52;8.30;99.90
3614;DHT22;1821;50.936;6.854;2022-09-29T03:12:34;9.50;99.90
3614;DHT22;1821;50.936;6.854;2022-09-29T03:13:16;8.50;99.90
3614;DHT22;1821;50.936;6.854;2022-09-29T03:13:58;8.20;99.90
3614;DHT22;1821;50.936;6.854;2022-09-29T03:14:40;8.50;99.90
3614;DHT22;1821;50.936;6.854;2022-09-29T03:15:21;8.60;99.90
3614;DHT22;1821;50.936;6.854;2022-09-29T03:16:03;8.10;99.90
3614;DHT22;1821;50.936;6.854;2022-09-29T03:16:45;8.70;99.90
3614;DHT22;1821;50.936;6.854;2022-09-29T03:17:28;8.50;99.90
3614;DHT22;1821;50.936;6.854;2022-09-29T03:18:09;8.70;99.90
3614;DHT22;1821;50.936;6.854;2022-09-29T03:18:51;8.60;99.90
3614;DHT22;1821;50.936;6.854;2022-09-29T03:19:33;8.50;99.90
3614;DHT22;1821;50.936;6.854;2022-09-29T03:20:14;9.00;99.90
3614;DHT22;1821;50.936;6.854;2022-09-29T03:20:56;8.40;99.90
3614;DHT22;1821;50.936;6.854;2022-09-29T03:21:38;8.50;99.90
3614;DHT22;1821;50.936;6.854;2022-09-29T03:22:19;8.50;99.90
3614;DHT22;1821;50.936;6.854;2022-09-29T03:23:01;8.40;99.90
3614;DHT22;1821;50.936;6.854;2022-09-29T03:23:43;9.10;99.90
3614;DHT22;1821;50.936;6.854;2022-09-29T03:24:24;8.40;99.90
3614;DHT22;1821;50.936;6.854;2022-09-29T03:25:07;8.50;99.90
3614;DHT22;1821;50.936;6.854;2022-09-29T03:25:49;8.50;99.90
3614;DHT22;1821;50.936;6.854;2022-09-29T03:26:31;8.10;99.90
3614;DHT22;1821;50.936;6.854;2022-09-29T03:27:12;9.20;99.90
3614;DHT22;1821;50.936;6.854;2022-09-29T03:27:54;8.50;99.90
3614;DHT22;1821;50.936;6.854;2022-09-29T03:28:36;8.40;99.90
3614;DHT22;1821;50.936;6.854;2022-09-29T03:29:17;8.40;99.90
3614;DHT22;1821;50.936;6.854;2022-09-29T03:29:59;8.40;99.90
3614;DHT22;1821;50.936;6.854;2022-09-29T03:30:41;8.40;99.90
3614;DHT22;1821;50.936;6.854;2022-09-29T03:31:23;8.30;99.90
3614;DHT22;1821;50.936;6.854;2022-09-29T03:32:04;8.40;99.90
3614;DHT22;1821;50.936;6.854;2022-09-29T03:32:46;10.20;99.90
3614;DHT22;1821;50.936;6.854;2022-09-29T03:33:28;8.40;99.90
3614;DHT22;1821;50.936;6.854;2022-09-29T03:34:10;8.50;99.90
3614;DHT22;1821;50.936;6.854;2022-09-29T03:34:51;8.40;99.90
3614;DHT22;1821;50.936;6.854;2022-09-29T03:35:33;8.40;99.90
3614;DHT22;1821;50.936;6.854;2022-09-29T03:36:14;8.40;99.90
3614;DHT22;1821;50.936;6.854;2022-09-29T03:36:56;8.40;99.90
3614;DHT22;1821;50.936;6.854;2022-09-29T03:37:38;8.40;99.90
3614;DHT22;1821;50.936;6.854;2022-09-29T03:38:20;8.00;99.90
3614;DHT22;1821;50.936;6.854;2022-09-29T03:39:01;8.30;99.90
3614;DHT22;1821;50.936;6.854;2022-09-29T03:39:43;8.30;99.90
3614;DHT22;1821;50.936;6.854;2022-09-29T03:40:26;8.30;99.90
3614;DHT22;1821;50.936;6.854;2022-09-29T03:41:08;8.30;99.90
3614;DHT22;1821;50.936;6.854;2022-09-29T03:41:50;8.20;99.90
3614;DHT22;1821;50.936;6.854;2022-09-29T03:42:32;8.20;99.90
3614;DHT22;1821;50.936;6.854;2022-09-29T03:43:13;8.80;99.90
3614;DHT22;1821;50.936;6.854;2022-09-29T03:43:55;8.20;99.90
3614;DHT22;1821;50.936;6.854;2022-09-29T03:44:37;7.90;99.90
3614;DHT22;1821;50.936;6.854;2022-09-29T03:45:18;8.20;99.90
3614;DHT22;1821;50.936;6.854;2022-09-29T03:46:00;8.20;99.90
3614;DHT22;1821;50.936;6.854;2022-09-29T03:46:42;8.70;99.90
3614;DHT22;1821;50.936;6.854;2022-09-29T03:47:24;9.00;99.90
3614;DHT22;1821;50.936;6.854;2022-09-29T03:48:06;8.30;99.90
3614;DHT22;1821;50.936;6.854;2022-09-29T03:48:47;8.30;99.90
3614;DHT22;1821;50.936;6.854;2022-09-29T03:49:29;8.30;99.90
3614;DHT22;1821;50.936;6.854;2022-09-29T03:50:11;8.40;99.90
3614;DHT22;1821;50.936;6.854;2022-09-29T03:50:53;8.90;99.90
3614;DHT22;1821;50.936;6.854;2022-09-29T03:51:35;8.30;99.90
3614;DHT22;1821;50.936;6.854;2022-09-29T03:52:17;8.30;99.90
3614;DHT22;1821;50.936;6.854;2022-09-29T03:52:59;8.30;99.90
3614;DHT22;1821;50.936;6.854;2022-09-29T03:53:41;8.10;99.90
3614;DHT22;1821;50.936;6.854;2022-09-29T03:54:22;8.30;99.90
3614;DHT22;1821;50.936;6.854;2022-09-29T03:55:07;8.30;99.90
3614;DHT22;1821;50.936;6.854;2022-09-29T03:55:50;8.30;99.90
3614;DHT22;1821;50.936;6.854;2022-09-29T03:56:32;9.50;99.90
3614;DHT22;1821;50.936;6.854;2022-09-29T03:57:14;8.30;99.90
3614;DHT22;1821;50.936;6.854;2022-09-29T03:57:55;8.30;99.90
3614;DHT22;1821;50.936;6.854;2022-09-29T03:58:37;8.30;99.90
3614;DHT22;1821;50.936;6.854;2022-09-29T03:59:19;8.90;99.90
3614;DHT22;1821;50.936;6.854;2022-09-29T04:00:01;8.30;99.90
3614;DHT22;1821;50.936;6.854;2022-09-29T04:00:43;8.60;99.90
3614;DHT22;1821;50.936;6.854;2022-09-29T04:01:25;8.30;99.90
3614;DHT22;1821;50.936;6.854;2022-09-29T04:02:06;8.30;99.90
3614;DHT22;1821;50.936;6.854;2022-09-29T04:02:48;8.30;99.90
3614;DHT22;1821;50.936;6.854;2022-09-29T04:03:30;8.30;99.90
3614;DHT22;1821;50.936;6.854;2022-09-29T04:04:11;8.10;99.90
3614;DHT22;1821;50.936;6.854;2022-09-29T04:04:53;8.30;99.90
3614;DHT22;1821;50.936;6.854;2022-09-29T04:05:35;8.30;99.90
3614;DHT22;1821;50.936;6.854;2022-09-29T04:06:20;8.30;99.90
3614;DHT22;1821;50.936;6.854;2022-09-29T04:07:01;8.30;99.90
3614;DHT22;1821;50.936;6.854;2022-09-29T04:07:43;8.30;99.90
3614;DHT22;1821;50.936;6.854;2022-09-29T04:08:25;8.30;99.90
3614;DHT22;1821;50.936;6.854;2022-09-29T04:09:06;8.10;99.90
3614;DHT22;1821;50.936;6.854;2022-09-29T04:09:48;8.30;99.90
3614;DHT22;1821;50.936;6.854;2022-09-29T04:10:32;8.90;99.90
3614;DHT22;1821;50.936;6.854;2022-09-29T04:11:14;8.10;99.90
3614;DHT22;1821;50.936;6.854;2022-09-29T04:11:56;8.20;99.90
3614;DHT22;1821;50.936;6.854;2022-09-29T04:12:38;9.30;99.90
3614;DHT22;1821;50.936;6.854;2022-09-29T04:13:20;8.90;99.90
3614;DHT22;1821;50.936;6.854;2022-09-29T04:14:05;8.40;99.90
3614;DHT22;1821;50.936;6.854;2022-09-29T04:14:46;8.20;99.90
3614;DHT22;1821;50.936;6.854;2022-09-29T04:15:28;8.70;99.90
3614;DHT22;1821;50.936;6.854;2022-09-29T04:16:10;8.20;99.90
3614;DHT22;1821;50.936;6.854;2022-09-29T04:16:52;8.20;99.90
3614;DHT22;1821;50.936;6.854;2022-09-29T04:17:33;8.10;99.90
3614;DHT22;1821;50.936;6.854;2022-09-29T04:18:15;8.10;99.90
3614;DHT22;1821;50.936;6.854;2022-09-29T04:18:57;8.10;99.90
3614;DHT22;1821;50.936;6.854;2022-09-29T04:19:39;8.10;99.90
3614;DHT22;1821;50.936;6.854;2022-09-29T04:20:21;8.10;99.90
3614;DHT22;1821;50.936;6.854;2022-09-29T04:21:07;8.00;99.90
3614;DHT22;1821;50.936;6.854;2022-09-29T04:21:49;8.10;99.90
3614;DHT22;1821;50.936;6.854;2022-09-29T04:22:30;8.10;99.90
3614;DHT22;1821;50.936;6.854;2022-09-29T04:23:12;8.10;99.90
3614;DHT22;1821;50.936;6.854;2022-09-29T04:23:54;8.10;99.90
3614;DHT22;1821;50.936;6.854;2022-09-29T04:24:35;8.10;99.90
3614;DHT22;1821;50.936;6.854;2022-09-29T04:25:17;8.50;99.90
3614;DHT22;1821;50.936;6.854;2022-09-29T04:25:59;7.90;99.90
3614;DHT22;1821;50.936;6.854;2022-09-29T04:26:44;8.00;99.90
3614;DHT22;1821;50.936;6.854;2022-09-29T04:27:25;8.70;99.90
3614;DHT22;1821;50.936;6.854;2022-09-29T04:28:07;8.90;99.90
3614;DHT22;1821;50.936;6.854;2022-09-29T04:28:49;8.30;99.90
3614;DHT22;1821;50.936;6.854;2022-09-29T04:29:30;8.60;99.90
3614;DHT22;1821;50.936;6.854;2022-09-29T04:30:12;8.10;99.90
3614;DHT22;1821;50.936;6.854;2022-09-29T04:30:54;8.10;99.90
3614;DHT22;1821;50.936;6.854;2022-09-29T04:31:35;8.10;99.90
3614;DHT22;1821;50.936;6.854;2022-09-29T04:32:17;8.10;99.90
3614;DHT22;1821;50.936;6.854;2022-09-29T04:32:59;8.10;99.90
3614;DHT22;1821;50.936;6.854;2022-09-29T04:33:41;8.70;99.90
3614;DHT22;1821;50.936;6.854;2022-09-29T04:34:22;8.60;99.90
3614;DHT22;1821;50.936;6.854;2022-09-29T04:35:04;8.10;99.90
3614;DHT22;1821;50.936;6.854;2022-09-29T04:35:46;8.10;99.90
3614;DHT22;1821;50.936;6.854;2022-09-29T04:36:28;8.10;99.90
3614;DHT22;1821;50.936;6.854;2022-09-29T04:37:09;8.10;99.90
3614;DHT22;1821;50.936;6.854;2022-09-29T04:37:55;8.40;99.90
3614;DHT22;1821;50.936;6.854;2022-09-29T04:38:40;8.10;99.90
3614;DHT22;1821;50.936;6.854;2022-09-29T04:39:22;8.10;99.90
3614;DHT22;1821;50.936;6.854;2022-09-29T04:40:04;8.10;99.90
3614;DHT22;1821;50.936;6.854;2022-09-29T04:40:47;8.20;99.90
3614;DHT22;1821;50.936;6.854;2022-09-29T04:41:29;8.80;99.90
3614;DHT22;1821;50.936;6.854;2022-09-29T04:42:15;9.40;99.90
3614;DHT22;1821;50.936;6.854;2022-09-29T04:42:56;8.20;99.90
3614;DHT22;1821;50.936;6.854;2022-09-29T04:43:38;8.10;99.90
3614;DHT22;1821;50.936;6.854;2022-09-29T04:44:20;8.20;99.90
3614;DHT22;1821;50.936;6.854;2022-09-29T04:45:03;8.20;99.90
3614;DHT22;1821;50.936;6.854;2022-09-29T04:45:45;8.20;99.90
3614;DHT22;1821;50.936;6.854;2022-09-29T04:46:27;8.20;99.90
3614;DHT22;1821;50.936;6.854;2022-09-29T04:47:08;8.20;99.90
3614;DHT22;1821;50.936;6.854;2022-09-29T04:47:50;8.20;99.90
3614;DHT22;1821;50.936;6.854;2022-09-29T04:48:33;8.20;99.90
3614;DHT22;1821;50.936;6.854;2022-09-29T04:49:19;8.40;99.90
3614;DHT22;1821;50.936;6.854;2022-09-29T04:50:01;8.20;99.90
3614;DHT22;1821;50.936;6.854;2022-09-29T04:50:43;8.20;99.90
3614;DHT22;1821;50.936;6.854;2022-09-29T04:51:24;8.20;99.90
3614;DHT22;1821;50.936;6.854;2022-09-29T04:52:06;8.20;99.90
3614;DHT22;1821;50.936;6.854;2022-09-29T04:52:48;8.30;99.90
3614;DHT22;1821;50.936;6.854;2022-09-29T04:53:29;8.90;99.90
3614;DHT22;1821;50.936;6.854;2022-09-29T04:54:11;8.70;99.90
3614;DHT22;1821;50.936;6.854;2022-09-29T04:54:53;8.50;99.90
3614;DHT22;1821;50.936;6.854;2022-09-29T04:55:36;8.20;99.90
3614;DHT22;1821;50.936;6.854;2022-09-29T04:56:18;8.80;99.90
3614;DHT22;1821;50.936;6.854;2022-09-29T04:57:00;8.20;99.90
3614;DHT22;1821;50.936;6.854;2022-09-29T04:57:42;8.20;99.90
3614;DHT22;1821;50.936;6.854;2022-09-29T04:58:24;8.30;99.90
3614;DHT22;1821;50.936;6.854;2022-09-29T04:59:06;9.10;99.90
3614;DHT22;1821;50.936;6.854;2022-09-29T04:59:49;8.10;99.90
3614;DHT22;1821;50.936;6.854;2022-09-29T05:00:32;8.10;99.90
3614;DHT22;1821;50.936;6.854;2022-09-29T05:01:14;8.20;99.90
3614;DHT22;1821;50.936;6.854;2022-09-29T05:01:56;8.20;99.90
3614;DHT22;1821;50.936;6.854;2022-09-29T05:02:38;8.80;99.90
3614;DHT22;1821;50.936;6.854;2022-09-29T05:03:20;8.70;99.90
3614;DHT22;1821;50.936;6.854;2022-09-29T05:04:01;8.20;99.90
3614;DHT22;1821;50.936;6.854;2022-09-29T05:04:44;8.20;99.90
3614;DHT22;1821;50.936;6.854;2022-09-29T05:05:26;8.20;99.90
3614;DHT22;1821;50.936;6.854;2022-09-29T05:06:09;8.10;99.90
3614;DHT22;1821;50.936;6.854;2022-09-29T05:06:50;8.10;99.90
3614;DHT22;1821;50.936;6.854;2022-09-29T05:07:36;8.10;99.90
3614;DHT22;1821;50.936;6.854;2022-09-29T05:08:18;8.90;99.90
3614;DHT22;1821;50.936;6.854;2022-09-29T05:09:00;8.10;99.90
3614;DHT22;1821;50.936;6.854;2022-09-29T05:09:41;7.90;99.90
3614;DHT22;1821;50.936;6.854;2022-09-29T05:10:23;8.20;99.90
3614;DHT22;1821;50.936;6.854;2022-09-29T05:11:07;8.10;99.90
3614;DHT22;1821;50.936;6.854;2022-09-29T05:11:49;8.60;99.90
3614;DHT22;1821;50.936;6.854;2022-09-29T05:12:30;8.30;99.90
3614;DHT22;1821;50.936;6.854;2022-09-29T05:13:12;8.70;99.90
3614;DHT22;1821;50.936;6.854;2022-09-29T05:13:54;8.90;99.90
3614;DHT22;1821;50.936;6.854;2022-09-29T05:14:36;8.10;99.90
3614;DHT22;1821;50.936;6.854;2022-09-29T05:15:18;8.70;99.90
3614;DHT22;1821;50.936;6.854;2022-09-29T05:16:06;8.00;99.90
3614;DHT22;1821;50.936;6.854;2022-09-29T05:16:48;8.10;99.90
3614;DHT22;1821;50.936;6.854;2022-09-29T05:17:30;8.20;99.90
3614;DHT22;1821;50.936;6.854;2022-09-29T05:18:11;8.00;99.90
3614;DHT22;1821;50.936;6.854;2022-09-29T05:18:53;8.20;99.90
3614;DHT22;1821;50.936;6.854;2022-09-29T05:19:35;9.20;99.90
3614;DHT22;1821;50.936;6.854;2022-09-29T05:20:16;8.00;99.90
3614;DHT22;1821;50.936;6.854;2022-09-29T05:21:03;8.30;99.90
3614;DHT22;1821;50.936;6.854;2022-09-29T05:22:05;7.90;99.90
3614;DHT22;1821;50.936;6.854;2022-09-29T05:22:46;8.10;99.90